Time;durP1;ratioP1;P1;durP2;ratioP2;P2;SDS_P1;SDS_P2;PMS_P1;PMS_P2;Temp;Humidity;BMP_temperature;BMP_pressure;BME280_temperature;BME280_humidity;BME280_pressure;Samples;Min_cycle;Max_cycle;Signal;HPM_P1;HPM_P2
2022/10/24 00:00:30;;;;;;;5.65;2.03;;;15.60;99.90;;;;;;5034837;28;20052;-64
2022/10/24 00:02:56;;;;;;;6.70;2.25;;;15.60;99.90;;;;;;5035103;28;20025;-64
2022/10/24 00:05:22;;;;;;;5.80;2.50;;;15.70;99.90;;;;;;5034501;28;20018;-64
2022/10/24 00:07:49;;;;;;;6.47;2.75;;;15.70;99.90;;;;;;5034528;28;20501;-64
2022/10/24 00:10:15;;;;;;;8.48;2.05;;;15.70;99.90;;;;;;5034555;28;20013;-64
2022/10/24 00:12:40;;;;;;;10.10;2.58;;;15.70;99.90;;;;;;5033357;28;20083;-64
2022/10/24 00:15:07;;;;;;;4.63;1.88;;;15.70;99.90;;;;;;5028549;28;20030;-64
2022/10/24 00:17:33;;;;;;;8.50;1.80;;;15.70;99.90;;;;;;5028034;28;20040;-64
2022/10/24 00:19:59;;;;;;;6.35;1.80;;;15.70;99.90;;;;;;5034579;28;20083;-64
2022/10/24 00:22:25;;;;;;;6.05;2.22;;;15.80;99.90;;;;;;5034052;28;20560;-64
2022/10/24 00:24:51;;;;;;;5.13;1.75;;;15.80;99.90;;;;;;5034797;28;20075;-64
2022/10/24 00:27:16;;;;;;;5.50;1.88;;;15.80;99.90;;;;;;5034153;28;20036;-64
2022/10/24 00:29:42;;;;;;;6.47;2.03;;;15.80;99.90;;;;;;5034684;28;20025;-64
2022/10/24 00:32:07;;;;;;;6.07;1.48;;;15.80;99.90;;;;;;5033906;28;20084;-64
2022/10/24 00:34:33;;;;;;;6.25;1.50;;;15.90;99.90;;;;;;5034613;28;20075;-64
2022/10/24 00:36:58;;;;;;;5.45;1.55;;;15.90;99.90;;;;;;5033608;28;20488;-64
2022/10/24 00:39:24;;;;;;;11.65;1.70;;;15.90;99.90;;;;;;5034054;28;20029;-64
2022/10/24 00:41:49;;;;;;;5.40;1.63;;;16.00;99.90;;;;;;5021336;28;20029;-64
2022/10/24 00:44:21;;;;;;;7.28;1.70;;;16.00;99.90;;;;;;5032774;28;20038;-64
2022/10/24 00:46:56;;;;;;;7.90;2.00;;;16.10;99.90;;;;;;5033312;28;20021;-64
2022/10/24 00:49:43;;;;;;;5.95;1.60;;;16.10;99.90;;;;;;5022216;28;20034;-64
2022/10/24 00:52:09;;;;;;;6.53;1.52;;;16.20;99.90;;;;;;5034225;28;20076;-64
2022/10/24 00:54:38;;;;;;;7.85;1.60;;;16.10;99.90;;;;;;5033972;28;20052;-64
2022/10/24 00:57:19;;;;;;;6.47;2.40;;;16.10;99.90;;;;;;5033813;28;20025;-64
2022/10/24 00:59:48;;;;;;;7.30;1.98;;;16.10;99.90;;;;;;5011947;28;20068;-64
2022/10/24 01:02:14;;;;;;;4.63;1.83;;;16.10;99.90;;;;;;5031589;28;20030;-64
2022/10/24 01:04:39;;;;;;;7.13;1.70;;;16.10;99.90;;;;;;5034118;28;20088;-64
2022/10/24 01:07:33;;;;;;;6.30;1.58;;;16.10;99.90;;;;;;5033652;28;20048;-64
2022/10/24 01:10:07;;;;;;;4.63;1.40;;;16.20;99.90;;;;;;5033438;28;20025;-64
2022/10/24 01:13:10;;;;;;;6.03;1.70;;;16.20;99.90;;;;;;5033098;28;20028;-64
2022/10/24 01:15:52;;;;;;;8.75;2.05;;;16.30;99.90;;;;;;5021790;28;20026;-64
2022/10/24 01:18:40;;;;;;;10.95;1.98;;;16.20;99.90;;;;;;5033557;28;20025;-64
2022/10/24 01:21:17;;;;;;;10.30;1.60;;;16.30;99.90;;;;;;5033214;28;20401;-64
2022/10/24 01:23:59;;;;;;;5.40;1.48;;;16.20;99.90;;;;;;5033559;28;20389;-64
2022/10/24 01:27:03;;;;;;;7.25;1.80;;;16.20;99.90;;;;;;5032767;28;20096;-64
2022/10/24 01:29:49;;;;;;;4.90;1.70;;;16.20;99.90;;;;;;5032770;28;20030;-64
2022/10/24 01:32:28;;;;;;;6.55;1.60;;;16.10;99.90;;;;;;5032632;28;20056;-64
2022/10/24 01:35:05;;;;;;;4.38;1.83;;;16.10;99.90;;;;;;5025506;28;20031;-64
2022/10/24 01:37:42;;;;;;;6.70;1.85;;;16.10;99.90;;;;;;5032529;28;20124;-64
2022/10/24 01:40:14;;;;;;;7.28;1.80;;;16.10;99.90;;;;;;5033598;28;20033;-64
2022/10/24 01:42:42;;;;;;;6.60;2.05;;;16.00;99.90;;;;;;5032094;28;20032;-64
2022/10/24 01:45:12;;;;;;;6.53;2.05;;;16.00;99.90;;;;;;5030966;28;20046;-64
2022/10/24 01:47:45;;;;;;;4.80;1.65;;;15.90;99.90;;;;;;5032840;28;20021;-64
2022/10/24 01:50:13;;;;;;;4.90;1.63;;;15.90;99.90;;;;;;5032791;28;20014;-64
2022/10/24 01:52:42;;;;;;;6.25;1.83;;;15.90;99.90;;;;;;5033079;28;20021;-64
2022/10/24 01:55:09;;;;;;;6.53;2.13;;;16.00;99.90;;;;;;5032788;28;20014;-64
2022/10/24 01:57:35;;;;;;;5.93;2.03;;;15.90;99.90;;;;;;5031385;28;20045;-64
2022/10/24 02:00:01;;;;;;;7.70;1.83;;;15.90;99.90;;;;;;5032875;28;20447;-64
2022/10/24 02:02:36;;;;;;;5.60;1.88;;;15.90;99.90;;;;;;5031495;28;20029;-64
2022/10/24 02:05:08;;;;;;;5.68;1.40;;;16.00;99.90;;;;;;5032936;28;20101;-64
2022/10/24 02:07:36;;;;;;;7.28;1.83;;;16.00;99.90;;;;;;5032354;28;20385;-64
2022/10/24 02:10:08;;;;;;;3.05;1.33;;;16.00;99.90;;;;;;5032372;28;20530;-64
2022/10/24 02:12:38;;;;;;;5.00;1.50;;;16.00;99.90;;;;;;5026476;28;20034;-64
2022/10/24 02:15:11;;;;;;;6.55;1.70;;;16.10;99.90;;;;;;5025153;28;20112;-64
2022/10/24 02:17:37;;;;;;;5.22;1.50;;;16.10;99.90;;;;;;5019174;28;20029;-64
2022/10/24 02:20:03;;;;;;;9.63;1.70;;;16.10;99.90;;;;;;5032425;28;20108;-64
2022/10/24 02:22:48;;;;;;;3.67;1.20;;;16.20;99.90;;;;;;5032653;28;20080;-64
2022/10/24 02:25:29;;;;;;;3.67;1.65;;;16.20;99.90;;;;;;5032288;28;20025;-64
2022/10/24 02:28:09;;;;;;;5.80;1.52;;;16.20;99.90;;;;;;5032237;28;20052;-64
2022/10/24 02:30:38;;;;;;;;;;;16.20;99.90;;;;;;5020553;28;20371;-64
2022/10/24 02:33:04;;;;;;;5.50;1.33;;;16.20;99.90;;;;;;5032305;28;19997;-64
2022/10/24 02:35:33;;;;;;;5.97;1.55;;;16.20;99.90;;;;;;5032467;28;20037;-64
2022/10/24 02:38:22;;;;;;;2.30;1.00;;;16.20;99.80;;;;;;5032015;28;20104;-64
2022/10/24 02:40:50;;;;;;;5.05;1.70;;;16.30;99.60;;;;;;5031448;28;20083;-64
2022/10/24 02:43:17;;;;;;;2.83;1.00;;;16.20;99.50;;;;;;5031785;28;20032;-64
2022/10/24 02:45:43;;;;;;;4.38;1.17;;;16.30;99.40;;;;;;5031911;28;20056;-64
2022/10/24 02:48:14;;;;;;;5.38;1.33;;;16.30;99.20;;;;;;5031957;28;20022;-64
2022/10/24 02:50:41;;;;;;;3.97;1.20;;;16.30;99.00;;;;;;5031942;28;20025;-64
2022/10/24 02:53:12;;;;;;;4.97;1.42;;;16.30;98.90;;;;;;5032410;28;20022;-64
2022/10/24 02:55:38;;;;;;;6.18;2.35;;;16.30;98.70;;;;;;5031828;28;20021;-64
2022/10/24 02:58:04;;;;;;;6.07;1.33;;;16.30;98.70;;;;;;5031959;28;20124;-64
2022/10/24 03:00:29;;;;;;;5.78;1.45;;;16.30;98.50;;;;;;5031671;28;20041;-64
2022/10/24 03:02:55;;;;;;;8.57;1.73;;;16.30;98.30;;;;;;5032100;28;20033;-64
2022/10/24 03:05:20;;;;;;;6.15;1.27;;;16.30;98.30;;;;;;5032030;28;20048;-64
2022/10/24 03:07:46;;;;;;;4.15;1.02;;;16.40;98.20;;;;;;5031978;28;20457;-64
2022/10/24 03:10:12;;;;;;;4.88;1.73;;;16.30;98.00;;;;;;5031997;28;20044;-64
2022/10/24 03:12:37;;;;;;;2.53;0.93;;;16.30;97.90;;;;;;5032078;28;20014;-64
2022/10/24 03:15:04;;;;;;;6.63;1.50;;;16.40;97.90;;;;;;5031897;28;20017;-64
2022/10/24 03:17:29;;;;;;;5.43;1.00;;;16.30;97.80;;;;;;5030461;28;20057;-64
2022/10/24 03:19:55;;;;;;;4.55;1.10;;;16.30;97.70;;;;;;5031871;28;20057;-64
2022/10/24 03:22:20;;;;;;;6.75;1.73;;;16.30;97.60;;;;;;5032352;28;20032;-64
2022/10/24 03:24:46;;;;;;;3.42;0.90;;;16.40;97.40;;;;;;5035691;28;20080;-64
2022/10/24 03:27:11;;;;;;;3.83;1.08;;;16.40;97.30;;;;;;5035352;28;20030;-64
2022/10/24 03:29:37;;;;;;;6.47;1.20;;;16.40;97.10;;;;;;5035300;28;20049;-64
2022/10/24 03:32:03;;;;;;;5.18;0.80;;;16.50;96.90;;;;;;5035473;28;20359;-64
2022/10/24 03:34:28;;;;;;;4.70;0.80;;;16.50;96.60;;;;;;5035560;28;20036;-64
2022/10/24 03:36:54;;;;;;;5.18;0.95;;;16.50;96.50;;;;;;5035464;28;20535;-64
2022/10/24 03:39:19;;;;;;;5.35;0.98;;;16.60;96.20;;;;;;5034482;28;20450;-64
2022/10/24 03:41:45;;;;;;;4.25;1.02;;;16.60;96.20;;;;;;5035241;28;20538;-64
2022/10/24 03:44:10;;;;;;;4.30;0.90;;;16.60;96.00;;;;;;5034965;28;20086;-64
2022/10/24 03:46:36;;;;;;;6.28;1.55;;;16.60;96.00;;;;;;5035195;28;20040;-64
2022/10/24 03:49:02;;;;;;;4.28;1.25;;;16.60;95.90;;;;;;5034136;28;20113;-64
2022/10/24 03:51:27;;;;;;;1.92;0.98;;;16.60;95.90;;;;;;5034575;28;20148;-64
2022/10/24 03:53:53;;;;;;;6.72;0.88;;;16.70;95.90;;;;;;5035404;28;20029;-64
2022/10/24 03:56:18;;;;;;;8.35;0.77;;;16.60;95.70;;;;;;5029236;28;20018;-64
2022/10/24 03:58:44;;;;;;;7.22;0.90;;;16.70;95.80;;;;;;5027735;28;20037;-64
2022/10/24 04:01:15;;;;;;;4.43;0.90;;;16.70;95.70;;;;;;5034344;28;20021;-64
2022/10/24 04:03:41;;;;;;;4.05;0.95;;;16.70;96.00;;;;;;5035121;28;20057;-64
2022/10/24 04:06:07;;;;;;;4.00;0.90;;;16.60;95.70;;;;;;5034929;28;20057;-64
2022/10/24 04:08:32;;;;;;;4.93;1.30;;;16.60;95.80;;;;;;5021934;28;20504;-64
2022/10/24 04:10:58;;;;;;;5.63;1.05;;;16.60;95.80;;;;;;5031826;28;20026;-64
2022/10/24 04:13:23;;;;;;;2.67;0.63;;;16.60;95.90;;;;;;5034822;28;20109;-64
2022/10/24 04:15:49;;;;;;;3.72;1.13;;;16.50;95.90;;;;;;5034520;28;20496;-64
2022/10/24 04:18:14;;;;;;;5.18;0.93;;;16.40;96.00;;;;;;5034659;28;20436;-64
2022/10/24 04:20:40;;;;;;;4.18;1.00;;;16.40;96.20;;;;;;5034559;28;20463;-64
2022/10/24 04:23:05;;;;;;;3.25;0.80;;;16.30;96.60;;;;;;5034839;28;20037;-64
2022/10/24 04:25:31;;;;;;;5.97;2.10;;;16.20;96.50;;;;;;5034232;28;20025;-64
2022/10/24 04:27:56;;;;;;;6.60;1.02;;;16.20;96.70;;;;;;5033254;28;20038;-64
2022/10/24 04:30:22;;;;;;;3.97;0.95;;;16.10;96.80;;;;;;5033138;28;20273;-64
2022/10/24 04:32:47;;;;;;;3.45;0.90;;;16.10;96.90;;;;;;5032248;28;20025;-64
2022/10/24 04:35:27;;;;;;;4.35;1.08;;;16.10;96.90;;;;;;5029128;28;20044;-64
2022/10/24 04:37:53;;;;;;;3.25;0.90;;;16.10;97.00;;;;;;5027494;28;20032;-64
2022/10/24 04:40:18;;;;;;;6.45;1.23;;;16.10;97.10;;;;;;5027969;28;20033;-64
2022/10/24 04:42:44;;;;;;;3.22;1.02;;;16.10;97.10;;;;;;5027351;28;20041;-64
2022/10/24 04:45:10;;;;;;;3.67;1.05;;;16.20;97.10;;;;;;5033714;28;20045;-64
2022/10/24 04:47:35;;;;;;;3.65;1.00;;;16.20;97.00;;;;;;5033550;28;20041;-64
2022/10/24 04:50:01;;;;;;;4.82;1.33;;;16.20;97.00;;;;;;5034041;28;20386;-64
2022/10/24 04:52:27;;;;;;;4.32;1.83;;;16.20;97.00;;;;;;5034128;28;20033;-64
2022/10/24 04:54:53;;;;;;;4.32;1.20;;;16.20;96.80;;;;;;5014906;28;20026;-64
2022/10/24 04:57:19;;;;;;;8.25;1.15;;;16.20;96.80;;;;;;5027882;28;20033;-64
2022/10/24 04:59:44;;;;;;;4.97;0.82;;;16.30;96.80;;;;;;5033869;28;20029;-64
2022/10/24 05:02:10;;;;;;;6.65;1.38;;;16.20;96.90;;;;;;5033795;28;20029;-64
2022/10/24 05:04:35;;;;;;;4.28;1.00;;;16.20;96.90;;;;;;5032547;28;20533;-64
2022/10/24 05:07:01;;;;;;;5.47;0.90;;;16.20;96.90;;;;;;5033652;28;20029;-64
2022/10/24 05:09:27;;;;;;;4.68;0.90;;;16.20;96.70;;;;;;5033378;28;20417;-64
2022/10/24 05:11:56;;;;;;;6.25;0.90;;;16.30;96.70;;;;;;5032208;28;20112;-64
2022/10/24 05:14:22;;;;;;;3.50;0.70;;;16.30;96.70;;;;;;5033575;28;20474;-64
2022/10/24 05:16:48;;;;;;;4.13;0.88;;;16.30;96.60;;;;;;5021997;28;20363;-64
2022/10/24 05:19:14;;;;;;;4.65;0.82;;;16.30;96.60;;;;;;5032006;28;20013;-64
2022/10/24 05:21:40;;;;;;;5.32;0.75;;;16.30;96.50;;;;;;5033118;28;20607;-64
2022/10/24 05:24:06;;;;;;;5.35;0.95;;;16.30;96.40;;;;;;5033285;28;20108;-64
2022/10/24 05:26:31;;;;;;;2.78;0.60;;;16.30;96.40;;;;;;5033566;28;20036;-64
2022/10/24 05:28:57;;;;;;;3.47;0.88;;;16.30;96.50;;;;;;5019742;28;20026;-64
2022/10/24 05:31:22;;;;;;;7.00;1.02;;;16.30;96.50;;;;;;5033489;28;20048;-64
2022/10/24 05:33:48;;;;;;;6.45;1.15;;;16.20;96.50;;;;;;5033018;28;20377;-64
2022/10/24 05:36:13;;;;;;;5.28;0.80;;;16.20;96.50;;;;;;5025559;28;20510;-64
2022/10/24 05:38:39;;;;;;;4.75;1.25;;;16.20;96.60;;;;;;5024972;28;20021;-64
2022/10/24 05:41:04;;;;;;;4.20;0.70;;;16.20;96.60;;;;;;5031018;28;20029;-64
2022/10/24 05:43:38;;;;;;;4.88;0.80;;;16.20;96.70;;;;;;5031602;28;20112;-63
2022/10/24 05:46:03;;;;;;;2.75;0.90;;;16.20;96.60;;;;;;5032083;28;20545;-64
2022/10/24 05:48:29;;;;;;;5.57;1.23;;;16.20;96.70;;;;;;5031577;28;20112;-64
2022/10/24 05:50:56;;;;;;;4.13;1.00;;;16.20;96.70;;;;;;5032511;28;20028;-64
2022/10/24 05:53:22;;;;;;;5.38;0.90;;;16.20;96.70;;;;;;5032806;28;20021;-64
2022/10/24 05:55:47;;;;;;;2.90;0.70;;;16.20;96.90;;;;;;5032325;28;20017;-64
2022/10/24 05:58:13;;;;;;;4.07;1.08;;;16.20;96.90;;;;;;5031592;28;20021;-64
2022/10/24 06:00:38;;;;;;;4.93;1.25;;;16.10;97.00;;;;;;5031994;28;20444;-64
2022/10/24 06:03:27;;;;;;;5.47;0.98;;;16.10;97.20;;;;;;5033438;28;20037;-64
2022/10/24 06:05:53;;;;;;;4.47;0.97;;;16.10;97.20;;;;;;5030242;28;20385;-64
2022/10/24 06:08:18;;;;;;;4.13;1.00;;;16.10;97.30;;;;;;5031832;28;20025;-64
2022/10/24 06:10:49;;;;;;;7.43;1.50;;;16.20;97.30;;;;;;5031201;28;20091;-64
2022/10/24 06:13:16;;;;;;;6.45;0.90;;;16.20;97.30;;;;;;5023926;28;20021;-64
2022/10/24 06:15:42;;;;;;;7.57;1.38;;;16.20;97.30;;;;;;5015495;28;20151;-64
2022/10/24 06:18:08;;;;;;;4.80;0.95;;;16.20;97.30;;;;;;5032028;28;20044;-64
2022/10/24 06:20:34;;;;;;;4.35;1.15;;;16.20;97.70;;;;;;5030663;28;20466;-64
2022/10/24 06:22:59;;;;;;;4.10;1.15;;;16.20;97.40;;;;;;5031681;28;20032;-64
2022/10/24 06:25:25;;;;;;;7.35;1.50;;;16.20;97.40;;;;;;5031071;28;20489;-64
2022/10/24 06:27:50;;;;;;;5.82;1.58;;;16.20;97.30;;;;;;5029586;28;20023;-64
2022/10/24 06:30:16;;;;;;;7.85;1.48;;;16.30;97.20;;;;;;5030431;28;20033;-64
2022/10/24 06:32:52;;;;;;;4.50;1.45;;;16.20;97.30;;;;;;5030950;28;20036;-64
2022/10/24 06:35:18;;;;;;;5.18;0.85;;;16.30;97.20;;;;;;5030878;28;20026;-64
2022/10/24 06:37:44;;;;;;;6.90;1.10;;;16.30;97.10;;;;;;5030831;28;20076;-64
2022/10/24 06:40:15;;;;;;;4.18;0.90;;;16.30;97.10;;;;;;5031290;28;20035;-64
2022/10/24 06:42:41;;;;;;;6.65;1.10;;;16.30;97.10;;;;;;5031480;28;20087;-64
2022/10/24 06:45:07;;;;;;;5.80;0.75;;;16.30;97.20;;;;;;5030650;28;20053;-64
2022/10/24 06:47:32;;;;;;;6.47;0.98;;;16.30;97.10;;;;;;5019676;28;20037;-64
2022/10/24 06:49:58;;;;;;;4.40;1.05;;;16.40;97.20;;;;;;5031301;28;20022;-64
2022/10/24 06:52:23;;;;;;;6.18;1.17;;;16.30;97.10;;;;;;5032173;28;20040;-64
2022/10/24 06:54:49;;;;;;;11.70;1.48;;;16.30;97.00;;;;;;5032009;28;20044;-64
2022/10/24 06:57:20;;;;;;;4.80;0.95;;;16.40;97.00;;;;;;5033022;28;20022;-64
2022/10/24 06:59:45;;;;;;;7.72;1.35;;;16.40;97.10;;;;;;5022384;28;20030;-64
2022/10/24 07:02:15;;;;;;;7.55;0.95;;;16.40;97.20;;;;;;5035154;28;20033;-64
2022/10/24 07:04:41;;;;;;;9.63;1.52;;;16.30;97.20;;;;;;5024315;28;20057;-64
2022/10/24 07:07:11;;;;;;;5.28;1.20;;;16.30;97.20;;;;;;5020450;28;20386;-64
2022/10/24 07:09:37;;;;;;;8.05;1.00;;;16.40;97.30;;;;;;5015965;28;20433;-64
2022/10/24 07:12:03;;;;;;;7.05;1.10;;;16.40;97.30;;;;;;5027084;28;20076;-64
2022/10/24 07:14:38;;;;;;;12.15;1.60;;;16.40;97.30;;;;;;5033149;28;20025;-64
2022/10/24 07:17:05;;;;;;;10.23;2.10;;;16.40;97.20;;;;;;5034574;28;20026;-64
2022/10/24 07:19:30;;;;;;;9.60;1.33;;;16.40;97.30;;;;;;5035464;28;20033;-64
2022/10/24 07:21:56;;;;;;;9.45;1.52;;;16.40;97.40;;;;;;5034449;28;20025;-64
2022/10/24 07:24:21;;;;;;;9.10;1.35;;;16.40;97.40;;;;;;5022839;28;20021;-64
2022/10/24 07:26:47;;;;;;;6.28;1.13;;;16.50;97.50;;;;;;5032887;28;20033;-64
2022/10/24 07:29:21;;;;;;;5.80;1.50;;;16.50;97.50;;;;;;5034143;28;20038;-64
2022/10/24 07:31:47;;;;;;;8.60;1.33;;;16.50;97.50;;;;;;5034348;28;20021;-64
2022/10/24 07:34:13;;;;;;;9.27;1.33;;;16.50;97.40;;;;;;5034497;28;20143;-64
2022/10/24 07:36:39;;;;;;;7.28;1.58;;;16.50;97.40;;;;;;5035436;28;20033;-64
2022/10/24 07:39:05;;;;;;;4.70;1.23;;;16.50;97.50;;;;;;5026923;28;20167;-64
2022/10/24 07:41:31;;;;;;;8.40;1.13;;;16.50;97.40;;;;;;5017078;28;20021;-64
2022/10/24 07:44:03;;;;;;;6.20;1.38;;;16.60;97.40;;;;;;5015160;28;20038;-64
2022/10/24 07:46:29;;;;;;;5.78;1.40;;;16.60;97.40;;;;;;5030882;28;20025;-64
2022/10/24 07:48:55;;;;;;;7.25;1.02;;;16.70;97.50;;;;;;5035362;28;20611;-64
2022/10/24 07:51:21;;;;;;;5.25;1.33;;;16.80;97.20;;;;;;5033565;28;20028;-64
2022/10/24 07:53:47;;;;;;;7.55;1.10;;;16.80;97.00;;;;;;5024680;28;20105;-64
2022/10/24 07:56:15;;;;;;;7.43;1.00;;;16.90;97.00;;;;;;5020053;28;20096;-64
2022/10/24 07:58:42;;;;;;;7.13;1.17;;;16.90;96.90;;;;;;5023644;28;20022;-64
2022/10/24 08:01:12;;;;;;;11.40;1.98;;;16.90;97.10;;;;;;5028155;28;20470;-64
2022/10/24 08:03:38;;;;;;;;;;;16.90;97.10;;;;;;5015909;28;20564;-64
2022/10/24 08:06:09;;;;;;;9.85;1.38;;;16.90;97.30;;;;;;5021046;28;19992;-64
2022/10/24 08:08:35;;;;;;;10.43;1.55;;;16.80;97.70;;;;;;5032760;28;20125;-64
2022/10/24 08:11:05;;;;;;;10.07;2.15;;;16.80;96.90;;;;;;5031377;28;20104;-64
2022/10/24 08:13:36;;;;;;;7.93;1.40;;;16.80;96.50;;;;;;5032218;28;20032;-64
2022/10/24 08:16:06;;;;;;;4.13;1.00;;;16.80;96.80;;;;;;5030443;28;20386;-64
2022/10/24 08:18:31;;;;;;;;;;;16.80;96.90;;;;;;5028226;28;20025;-64
2022/10/24 08:20:59;;;;;;;6.72;1.23;;;16.80;96.60;;;;;;5034168;28;19915;-64
2022/10/24 08:23:25;;;;;;;8.52;1.33;;;16.80;96.80;;;;;;5022724;28;20026;-64
2022/10/24 08:25:51;;;;;;;9.20;1.30;;;16.80;97.00;;;;;;5028198;28;20512;-64
2022/10/24 08:28:17;;;;;;;6.63;1.92;;;16.90;97.10;;;;;;5028251;28;20435;-64
2022/10/24 08:30:42;;;;;;;7.55;0.68;;;16.90;97.10;;;;;;5022206;28;20719;-64
2022/10/24 08:33:08;;;;;;;5.35;0.80;;;16.90;97.40;;;;;;5022603;28;20109;-64
2022/10/24 08:35:33;;;;;;;6.40;1.15;;;16.90;97.50;;;;;;5034007;28;20032;-64
2022/10/24 08:38:00;;;;;;;6.80;0.77;;;16.80;97.30;;;;;;5033312;28;20101;-64
2022/10/24 08:40:26;;;;;;;4.43;0.65;;;16.80;97.10;;;;;;5026791;28;20038;-64
2022/10/24 08:42:52;;;;;;;4.22;1.33;;;16.90;96.80;;;;;;5027472;28;20029;-64
2022/10/24 08:46:02;;;;;;;9.70;1.00;;;16.90;97.10;;;;;;5031496;28;20041;-64
2022/10/24 08:48:30;;;;;;;;;;;17.00;96.60;;;;;;5021841;28;20068;-64
2022/10/24 08:51:07;;;;;;;10.45;1.23;;;17.00;96.60;;;;;;5033679;28;19911;-64
2022/10/24 08:53:33;;;;;;;4.57;0.93;;;17.00;96.60;;;;;;5034084;28;20024;-64
2022/10/24 08:56:00;;;;;;;4.43;0.80;;;17.00;96.40;;;;;;5020581;28;20030;-64
2022/10/24 08:58:35;;;;;;;6.47;0.80;;;17.10;96.50;;;;;;5034063;28;20456;-64
2022/10/24 09:01:06;;;;;;;8.93;0.90;;;17.10;96.20;;;;;;5029335;28;20033;-64
2022/10/24 09:03:47;;;;;;;6.32;1.00;;;17.10;95.90;;;;;;5026057;28;20021;-64
2022/10/24 09:06:20;;;;;;;3.45;0.80;;;17.20;95.50;;;;;;5021651;28;20033;-64
2022/10/24 09:08:55;;;;;;;4.70;0.88;;;17.20;95.60;;;;;;5018552;28;20026;-64
2022/10/24 09:11:42;;;;;;;6.20;1.05;;;17.20;95.30;;;;;;5019550;28;20030;-64
2022/10/24 09:14:28;;;;;;;7.00;1.58;;;17.30;95.30;;;;;;5033529;28;20029;-64
2022/10/24 09:17:01;;;;;;;5.95;0.68;;;17.30;95.20;;;;;;5033942;28;20022;-64
2022/10/24 09:19:31;;;;;;;5.05;0.75;;;17.40;95.20;;;;;;5030624;28;20057;-64
2022/10/24 09:22:09;;;;;;;5.85;1.35;;;17.50;95.00;;;;;;5027209;28;20017;-64
2022/10/24 09:24:44;;;;;;;5.18;0.63;;;17.60;94.70;;;;;;5033864;28;20040;-64
2022/10/24 09:27:15;;;;;;;5.20;0.85;;;17.60;94.40;;;;;;5033325;28;20029;-64
2022/10/24 09:29:41;;;;;;;4.03;1.00;;;17.70;94.40;;;;;;5031912;28;20029;-64
2022/10/24 09:32:15;;;;;;;4.57;0.90;;;17.70;94.30;;;;;;5014629;28;20021;-64
2022/10/24 09:34:40;;;;;;;5.38;0.85;;;17.80;94.10;;;;;;5031610;28;20028;-64
2022/10/24 09:37:06;;;;;;;5.57;0.88;;;17.80;94.10;;;;;;5031887;28;20029;-64
2022/10/24 09:39:33;;;;;;;3.83;0.80;;;17.90;93.80;;;;;;5030499;28;20030;-64
2022/10/24 09:42:00;;;;;;;4.97;0.73;;;18.00;93.60;;;;;;5031860;28;20017;-64
2022/10/24 09:44:38;;;;;;;4.70;1.02;;;18.20;93.40;;;;;;5056741;28;20481;-64
2022/10/24 09:47:07;;;;;;;4.63;0.70;;;18.30;92.90;;;;;;5050387;28;20025;-64
2022/10/24 09:49:37;;;;;;;6.15;1.05;;;18.50;92.70;;;;;;5048705;28;20116;-64
2022/10/24 09:52:24;;;;;;;3.85;0.68;;;18.70;91.90;;;;;;5029616;28;20025;-64
2022/10/24 09:55:21;;;;;;;3.92;0.55;;;18.80;92.00;;;;;;5032829;28;20100;-64
2022/10/24 09:57:51;;;;;;;5.10;1.02;;;18.70;91.30;;;;;;5031839;28;20100;-64
2022/10/24 10:00:22;;;;;;;4.85;0.60;;;18.60;91.60;;;;;;5030022;28;20040;-64
2022/10/24 10:03:18;;;;;;;3.92;0.80;;;18.50;91.60;;;;;;5028807;28;20652;-64
2022/10/24 10:05:47;;;;;;;5.22;0.70;;;18.40;91.50;;;;;;5030122;28;20561;-64
2022/10/24 10:08:32;;;;;;;2.05;0.50;;;18.30;91.40;;;;;;5030371;28;20120;-64
2022/10/24 10:11:10;;;;;;;6.70;0.95;;;18.90;91.00;;;;;;5015132;28;20025;-64
2022/10/24 10:13:48;;;;;;;3.45;1.25;;;19.60;90.10;;;;;;5031675;28;20079;-64
2022/10/24 10:16:44;;;;;;;4.93;0.70;;;19.90;87.80;;;;;;5030129;28;20469;-64
2022/10/24 10:19:14;;;;;;;4.43;0.80;;;19.40;87.60;;;;;;5019871;28;20048;-64
2022/10/24 10:22:00;;;;;;;4.82;0.60;;;19.10;87.90;;;;;;5030625;28;20029;-64
2022/10/24 10:24:44;;;;;;;5.13;0.73;;;18.90;89.30;;;;;;5031651;28;20022;-64
2022/10/24 10:27:24;;;;;;;6.45;0.77;;;19.10;89.80;;;;;;5028863;28;20511;-64
2022/10/24 10:30:11;;;;;;;3.60;0.65;;;20.10;86.10;;;;;;5028168;28;20491;-65
2022/10/24 10:32:49;;;;;;;6.63;1.00;;;21.50;83.10;;;;;;5018680;28;20021;-64
2022/10/24 10:35:21;;;;;;;2.95;0.75;;;23.50;76.60;;;;;;5030337;28;20080;-63
2022/10/24 10:38:15;;;;;;;4.10;0.65;;;23.60;71.60;;;;;;5030641;28;20104;-63
2022/10/24 10:40:45;;;;;;;3.92;0.90;;;22.90;71.50;;;;;;5023696;28;20117;-62
2022/10/24 10:43:35;;;;;;;6.18;0.90;;;22.00;73.50;;;;;;5028827;28;20115;-62
2022/10/24 10:46:19;;;;;;;3.65;0.70;;;21.10;75.70;;;;;;5016424;28;20129;-63
2022/10/24 10:49:00;;;;;;;4.55;0.70;;;20.40;78.60;;;;;;5042088;28;20440;-62
2022/10/24 10:51:46;;;;;;;4.20;0.80;;;20.10;80.50;;;;;;5028100;28;20105;-62
2022/10/24 10:54:40;;;;;;;4.15;0.80;;;20.10;80.70;;;;;;5032324;28;20029;-62
2022/10/24 10:57:13;;;;;;;3.70;0.88;;;20.50;80.30;;;;;;5028051;28;20017;-62
2022/10/24 11:00:06;;;;;;;1.52;0.60;;;21.30;77.30;;;;;;5024745;28;20034;-63
2022/10/24 11:02:48;;;;;;;3.25;0.60;;;22.60;73.00;;;;;;5031696;28;20325;-62
2022/10/24 11:05:17;;;;;;;3.15;1.05;;;24.00;69.10;;;;;;5029711;28;20113;-63
2022/10/24 11:07:54;;;;;;;4.50;0.50;;;24.10;67.80;;;;;;5032047;28;20025;-62
2022/10/24 11:10:23;;;;;;;3.13;0.80;;;24.10;67.90;;;;;;5032228;28;20024;-62
2022/10/24 11:13:06;;;;;;;;;;;23.70;67.20;;;;;;5032877;28;20504;-63
2022/10/24 11:15:44;;;;;;;3.00;0.50;;;23.70;66.60;;;;;;5032241;28;19912;-62
2022/10/24 11:18:31;;;;;;;3.15;1.02;;;23.40;67.50;;;;;;5025918;28;20137;-63
2022/10/24 11:21:08;;;;;;;3.83;0.60;;;23.70;67.20;;;;;;5032136;28;20025;-63
2022/10/24 11:23:54;;;;;;;3.70;0.70;;;24.20;65.30;;;;;;5032145;28;20053;-63
2022/10/24 11:26:42;;;;;;;4.13;0.70;;;24.50;64.40;;;;;;5029718;28;20026;-62
2022/10/24 11:29:35;;;;;;;3.28;0.90;;;24.30;64.30;;;;;;5025562;28;20496;-63
2022/10/24 11:32:21;;;;;;;5.15;0.80;;;24.20;64.30;;;;;;5028510;28;20037;-63
2022/10/24 11:35:14;;;;;;;1.52;0.45;;;23.60;64.10;;;;;;5028898;28;20084;-62
2022/10/24 11:37:42;;;;;;;3.45;0.73;;;22.90;65.60;;;;;;5025356;28;20052;-63
2022/10/24 11:40:08;;;;;;;3.95;0.68;;;22.30;67.50;;;;;;5027921;28;20026;-63
2022/10/24 11:42:54;;;;;;;1.30;0.30;;;21.80;69.30;;;;;;5026750;28;20067;-62
2022/10/24 11:45:26;;;;;;;3.50;0.75;;;21.40;71.20;;;;;;5028333;28;20060;-63
2022/10/24 11:47:58;;;;;;;5.45;0.90;;;21.00;76.30;;;;;;5032434;28;20056;-63
2022/10/24 11:50:24;;;;;;;3.53;0.90;;;20.60;78.60;;;;;;5034723;28;20083;-63
2022/10/24 11:52:53;;;;;;;9.43;1.70;;;20.10;80.30;;;;;;5033740;28;20057;-62
2022/10/24 11:55:23;;;;;;;;;;;19.90;81.80;;;;;;5033318;28;20131;-62
2022/10/24 11:57:56;;;;;;;4.03;0.93;;;19.60;82.70;;;;;;5032578;28;20400;-62
2022/10/24 12:00:31;;;;;;;3.33;0.50;;;19.50;84.50;;;;;;5035042;28;20021;-62
2022/10/24 12:03:23;;;;;;;3.53;0.80;;;19.40;85.60;;;;;;5036876;28;20812;-62
2022/10/24 12:06:21;;;;;;;4.90;0.82;;;19.20;86.10;;;;;;5034848;28;20021;-62
2022/10/24 12:09:04;;;;;;;2.90;0.60;;;19.00;87.70;;;;;;5033246;28;20404;-62
2022/10/24 12:12:07;;;;;;;4.50;1.00;;;18.80;88.90;;;;;;5032313;28;20021;-62
2022/10/24 12:14:54;;;;;;;4.57;1.30;;;18.50;89.40;;;;;;5034676;28;20075;-62
2022/10/24 12:17:19;;;;;;;6.15;0.82;;;18.30;90.40;;;;;;5033191;28;20031;-62
2022/10/24 12:19:45;;;;;;;5.47;0.90;;;18.10;91.00;;;;;;5033106;28;20033;-62
2022/10/24 12:22:26;;;;;;;8.73;1.90;;;18.00;91.70;;;;;;5034391;28;20018;-62
2022/10/24 12:25:31;;;;;;;5.85;1.15;;;17.90;93.30;;;;;;5036672;28;20099;-62
2022/10/24 12:28:07;;;;;;;5.00;1.00;;;17.90;93.70;;;;;;5010461;28;20046;-64
2022/10/24 12:30:35;;;;;;;6.20;0.82;;;17.80;94.10;;;;;;5027354;28;20101;-64
2022/10/24 12:33:28;;;;;;;4.55;0.90;;;17.70;94.30;;;;;;5023768;28;20040;-64
2022/10/24 12:36:03;;;;;;;6.60;0.90;;;17.60;94.60;;;;;;5026941;28;20036;-64
2022/10/24 12:38:28;;;;;;;7.00;1.00;;;17.60;95.30;;;;;;5034996;28;20025;-64
2022/10/24 12:41:17;;;;;;;5.53;0.95;;;17.50;95.70;;;;;;5037357;28;20473;-64
2022/10/24 12:43:46;;;;;;;7.03;1.08;;;17.50;96.10;;;;;;5024655;28;20040;-64
2022/10/24 12:46:24;;;;;;;3.88;0.60;;;17.50;96.40;;;;;;5031320;28;20025;-64
2022/10/24 12:49:28;;;;;;;4.40;0.80;;;17.40;96.70;;;;;;5040660;28;20140;-64
2022/10/24 12:51:54;;;;;;;4.32;1.00;;;17.50;96.80;;;;;;5023276;28;20033;-64
2022/10/24 12:54:41;;;;;;;5.75;0.85;;;17.40;97.10;;;;;;5040316;28;20053;-64
2022/10/24 12:57:12;;;;;;;7.60;1.08;;;17.60;97.00;;;;;;5030846;28;20015;-64
2022/10/24 12:59:51;;;;;;;3.60;1.17;;;17.70;96.90;;;;;;5032279;28;20055;-64
2022/10/24 13:02:19;;;;;;;6.60;0.85;;;17.80;96.70;;;;;;5040362;28;20026;-64
2022/10/24 13:05:09;;;;;;;5.18;0.98;;;18.00;96.50;;;;;;5038812;28;20040;-64
2022/10/24 13:07:56;;;;;;;6.47;1.05;;;18.10;96.00;;;;;;5031011;28;20029;-64
2022/10/24 13:10:35;;;;;;;6.13;0.90;;;18.00;95.80;;;;;;5031227;28;20021;-64